createdAt,value
2022-12-24T00:00:16.866Z,997.87
2022-12-24T00:01:16.824Z,997.80
2022-12-24T00:02:16.934Z,997.83
2022-12-24T00:03:16.903Z,997.85
2022-12-24T00:04:16.792Z,997.86
2022-12-24T00:05:16.783Z,997.84
2022-12-24T00:06:16.770Z,997.86
2022-12-24T00:07:16.765Z,997.89
2022-12-24T00:08:16.741Z,997.89
2022-12-24T00:09:16.743Z,997.97
2022-12-24T00:10:16.735Z,997.97
2022-12-24T00:11:16.723Z,998.03
2022-12-24T00:12:16.703Z,997.96
2022-12-24T00:13:16.710Z,997.95
2022-12-24T00:14:16.688Z,997.97
2022-12-24T00:15:16.683Z,998.02
2022-12-24T00:16:16.707Z,998.02
2022-12-24T00:17:16.758Z,998.07
2022-12-24T00:18:16.646Z,998.00
2022-12-24T00:19:16.638Z,998.08
2022-12-24T00:20:16.617Z,998.00
2022-12-24T00:21:16.605Z,998.13
2022-12-24T00:22:16.591Z,998.08
2022-12-24T00:23:16.590Z,998.08
2022-12-24T00:24:16.607Z,997.97
2022-12-24T00:25:16.561Z,998.11
2022-12-24T00:26:16.546Z,998.17
2022-12-24T00:27:16.547Z,998.13
2022-12-24T00:28:16.524Z,998.13
2022-12-24T00:29:16.512Z,998.15
2022-12-24T00:30:16.515Z,998.08
2022-12-24T00:31:16.690Z,998.14
2022-12-24T00:32:16.485Z,998.16
2022-12-24T00:33:22.369Z,998.14
2022-12-24T00:34:16.469Z,998.25
2022-12-24T00:35:16.474Z,998.28
2022-12-24T00:36:16.453Z,998.24
2022-12-24T00:37:16.422Z,998.31
2022-12-24T00:38:16.418Z,998.29
2022-12-24T00:39:16.402Z,998.27
2022-12-24T00:40:16.409Z,998.36
2022-12-24T00:41:16.379Z,998.34
2022-12-24T00:42:16.375Z,998.44
2022-12-24T00:43:16.359Z,998.47
2022-12-24T00:44:16.365Z,998.38
2022-12-24T00:45:16.345Z,998.45
2022-12-24T00:46:16.405Z,998.45
2022-12-24T00:47:16.316Z,998.43
2022-12-24T00:48:16.322Z,998.49
2022-12-24T00:49:16.290Z,998.51
2022-12-24T00:50:16.293Z,998.62
2022-12-24T00:51:16.314Z,998.60
2022-12-24T00:52:16.285Z,998.62
2022-12-24T00:53:16.248Z,998.63
2022-12-24T00:54:16.250Z,998.61
2022-12-24T00:55:16.251Z,998.64
2022-12-24T00:56:16.229Z,998.64
2022-12-24T00:57:16.204Z,998.61
2022-12-24T00:58:16.202Z,998.62
2022-12-24T00:59:16.181Z,998.67
2022-12-24T01:00:16.181Z,998.78
2022-12-24T01:01:16.315Z,998.73
2022-12-24T01:02:16.433Z,998.71
2022-12-24T01:03:16.231Z,998.64
2022-12-24T01:04:16.130Z,998.77
2022-12-24T01:05:16.127Z,998.77
2022-12-24T01:06:16.107Z,998.78
2022-12-24T01:07:16.102Z,998.77
2022-12-24T01:08:16.089Z,998.80
2022-12-24T01:09:16.077Z,998.82
2022-12-24T01:10:16.091Z,998.76
2022-12-24T01:11:16.051Z,998.83
2022-12-24T01:12:16.047Z,998.85
2022-12-24T01:13:16.030Z,998.85
2022-12-24T01:14:16.018Z,998.77
2022-12-24T01:15:16.012Z,998.84
2022-12-24T01:16:16.172Z,998.83
2022-12-24T01:17:15.979Z,998.85
2022-12-24T01:18:15.976Z,998.93
2022-12-24T01:19:15.967Z,998.97
2022-12-24T01:20:15.984Z,998.97
2022-12-24T01:21:15.961Z,999.00
2022-12-24T01:22:15.932Z,999.00
2022-12-24T01:23:15.914Z,998.97
2022-12-24T01:24:15.926Z,999.06
2022-12-24T01:25:15.902Z,999.07
2022-12-24T01:26:15.886Z,999.05
2022-12-24T01:27:15.884Z,999.09
2022-12-24T01:28:15.863Z,999.12
2022-12-24T01:29:15.872Z,999.12
2022-12-24T01:30:15.928Z,999.16
2022-12-24T01:31:15.955Z,999.17
2022-12-24T01:32:15.856Z,999.18
2022-12-24T01:33:15.884Z,999.17
2022-12-24T01:34:15.804Z,999.20
2022-12-24T01:35:15.835Z,999.27
2022-12-24T01:36:16.800Z,999.30
2022-12-24T01:37:15.791Z,999.39
2022-12-24T01:38:15.779Z,999.37
2022-12-24T01:39:15.771Z,999.35
2022-12-24T01:40:15.733Z,999.41
2022-12-24T01:41:15.787Z,999.41
2022-12-24T01:42:15.710Z,999.43
2022-12-24T01:43:15.702Z,999.34
2022-12-24T01:44:15.691Z,999.44
2022-12-24T01:45:15.678Z,999.41
2022-12-24T01:46:15.751Z,999.36
2022-12-24T01:47:15.657Z,999.40
2022-12-24T01:48:15.646Z,999.42
2022-12-24T01:49:15.629Z,999.47
2022-12-24T01:50:15.621Z,999.48
2022-12-24T01:51:15.619Z,999.50
2022-12-24T01:52:15.599Z,999.47
2022-12-24T01:53:15.602Z,999.43
2022-12-24T01:54:15.571Z,999.47
2022-12-24T01:55:15.566Z,999.52
2022-12-24T01:56:15.558Z,999.54
2022-12-24T01:57:15.546Z,999.51
2022-12-24T01:58:15.531Z,999.51
2022-12-24T01:59:15.521Z,999.60
2022-12-24T02:00:15.507Z,999.56
2022-12-24T02:01:15.612Z,999.55
2022-12-24T02:02:15.687Z,999.63
2022-12-24T02:03:15.527Z,999.62
2022-12-24T02:04:15.471Z,999.60
2022-12-24T02:05:15.467Z,999.65
2022-12-24T02:06:15.453Z,999.65
2022-12-24T02:07:15.439Z,999.66
2022-12-24T02:08:15.417Z,999.73
2022-12-24T02:09:15.432Z,999.79
2022-12-24T02:10:15.398Z,999.74
2022-12-24T02:11:15.411Z,999.79
2022-12-24T02:12:15.373Z,999.80
2022-12-24T02:13:15.369Z,999.73
2022-12-24T02:14:15.352Z,999.76
2022-12-24T02:15:15.345Z,999.77
2022-12-24T02:16:15.405Z,999.85
2022-12-24T02:17:15.323Z,999.85
2022-12-24T02:18:15.326Z,999.86
2022-12-24T02:19:15.300Z,999.86
2022-12-24T02:20:15.292Z,999.92
2022-12-24T02:21:15.285Z,999.87
2022-12-24T02:22:15.267Z,999.82
2022-12-24T02:23:15.266Z,999.88
2022-12-24T02:24:15.239Z,999.95
2022-12-24T02:25:15.233Z,999.88
2022-12-24T02:26:15.237Z,1000.02
2022-12-24T02:27:15.209Z,999.97
2022-12-24T02:28:15.192Z,1000.02
2022-12-24T02:29:15.189Z,999.98
2022-12-24T02:30:15.179Z,999.97
2022-12-24T02:31:15.207Z,1000.02
2022-12-24T02:32:15.151Z,1000.09
2022-12-24T02:33:15.147Z,1000.09
2022-12-24T02:34:15.187Z,1000.06
2022-12-24T02:35:15.119Z,1000.12
2022-12-24T02:36:15.116Z,1000.15
2022-12-24T02:37:15.121Z,1000.10
2022-12-24T02:38:15.087Z,1000.14
2022-12-24T02:39:15.082Z,1000.16
2022-12-24T02:40:16.733Z,1000.12
2022-12-24T02:41:15.069Z,1000.19
2022-12-24T02:42:15.049Z,1000.13
2022-12-24T02:43:15.042Z,1000.21
2022-12-24T02:44:15.021Z,1000.28
2022-12-24T02:45:15.016Z,1000.23
2022-12-24T02:46:15.039Z,1000.26
2022-12-24T02:47:14.998Z,1000.25
2022-12-24T02:48:14.985Z,1000.27
2022-12-24T02:49:14.976Z,1000.32
2022-12-24T02:50:14.953Z,1000.39
2022-12-24T02:51:14.946Z,1000.29
2022-12-24T02:52:14.938Z,1000.36
2022-12-24T02:53:14.924Z,1000.32
2022-12-24T02:54:14.909Z,1000.36
2022-12-24T02:55:14.903Z,1000.38
2022-12-24T02:56:14.904Z,1000.40
2022-12-24T02:57:14.888Z,1000.36
2022-12-24T02:58:14.864Z,1000.46
2022-12-24T02:59:14.868Z,1000.45
2022-12-24T03:00:14.845Z,1000.43
2022-12-24T03:01:14.997Z,1000.38
2022-12-24T03:02:15.029Z,1000.45
2022-12-24T03:03:14.825Z,1000.48
2022-12-24T03:04:14.800Z,1000.41
2022-12-24T03:05:14.800Z,1000.34
2022-12-24T03:06:14.785Z,1000.40
2022-12-24T03:07:14.779Z,1000.43
2022-12-24T03:08:14.760Z,1000.41
2022-12-24T03:09:14.754Z,1000.45
2022-12-24T03:10:14.737Z,1000.46
2022-12-24T03:11:14.730Z,1000.50
2022-12-24T03:12:14.729Z,1000.56
2022-12-24T03:13:14.700Z,1000.49
2022-12-24T03:14:14.686Z,1000.48
2022-12-24T03:15:14.682Z,1000.52
2022-12-24T03:16:14.749Z,1000.49
2022-12-24T03:17:14.698Z,1000.43
2022-12-24T03:18:14.650Z,1000.56
2022-12-24T03:19:14.640Z,1000.54
2022-12-24T03:20:14.628Z,1000.53
2022-12-24T03:21:14.619Z,1000.62
2022-12-24T03:22:14.624Z,1000.60
2022-12-24T03:23:14.599Z,1000.58
2022-12-24T03:24:14.577Z,1000.64
2022-12-24T03:25:14.575Z,1000.67
2022-12-24T03:26:14.557Z,1000.67
2022-12-24T03:27:14.576Z,1000.60
2022-12-24T03:28:14.532Z,1000.74
2022-12-24T03:29:14.527Z,1000.69
2022-12-24T03:30:14.507Z,1000.68
2022-12-24T03:31:14.618Z,1000.74
2022-12-24T03:32:14.504Z,1000.79
2022-12-24T03:33:14.476Z,1000.80
2022-12-24T03:34:14.474Z,1000.85
2022-12-24T03:35:14.467Z,1000.90
2022-12-24T03:36:14.441Z,1000.91
2022-12-24T03:37:14.439Z,1001.00
2022-12-24T03:38:14.431Z,1001.00
2022-12-24T03:39:14.421Z,1001.00
2022-12-24T03:40:14.416Z,1001.01
2022-12-24T03:41:14.387Z,1001.00
2022-12-24T03:42:14.401Z,1000.97
2022-12-24T03:43:14.379Z,1001.05
2022-12-24T03:44:14.357Z,1001.01
2022-12-24T03:45:14.378Z,1001.00
2022-12-24T03:46:14.395Z,1001.01
2022-12-24T03:47:14.330Z,1001.06
2022-12-24T03:48:14.313Z,1001.05
2022-12-24T03:49:14.301Z,1001.04
2022-12-24T03:50:14.298Z,1001.13
2022-12-24T03:51:14.277Z,1001.08
2022-12-24T03:52:14.276Z,1001.12
2022-12-24T03:53:14.264Z,1001.13
2022-12-24T03:54:14.247Z,1001.12
2022-12-24T03:55:14.232Z,1001.09
2022-12-24T03:56:14.228Z,1001.11
2022-12-24T03:57:14.247Z,1001.16
2022-12-24T03:58:14.202Z,1001.13
2022-12-24T03:59:14.187Z,1001.23
2022-12-24T04:00:14.192Z,1001.17
2022-12-24T04:01:14.357Z,1001.22
2022-12-24T04:02:14.490Z,1001.22
2022-12-24T04:03:14.352Z,1001.19
2022-12-24T04:04:14.159Z,1001.18
2022-12-24T04:05:14.151Z,1001.18
2022-12-24T04:06:14.123Z,1001.26
2022-12-24T04:07:14.157Z,1001.12
2022-12-24T04:08:14.099Z,1001.21
2022-12-24T04:09:14.078Z,1001.25
2022-12-24T04:10:14.087Z,1001.25
2022-12-24T04:11:14.058Z,1001.23
2022-12-24T04:12:14.060Z,1001.19
2022-12-24T04:13:14.033Z,1001.31
2022-12-24T04:14:14.025Z,1001.27
2022-12-24T04:15:14.014Z,1001.26
2022-12-24T04:16:14.055Z,1001.24
2022-12-24T04:17:14.017Z,1001.28
2022-12-24T04:18:13.982Z,1001.22
2022-12-24T04:19:13.973Z,1001.28
2022-12-24T04:20:13.957Z,1001.27
2022-12-24T04:21:13.943Z,1001.32
2022-12-24T04:22:13.940Z,1001.25
2022-12-24T04:23:13.931Z,1001.29
2022-12-24T04:24:13.915Z,1001.33
2022-12-24T04:25:13.895Z,1001.30
2022-12-24T04:26:13.900Z,1001.28
2022-12-24T04:27:13.879Z,1001.34
2022-12-24T04:28:13.889Z,1001.38
2022-12-24T04:29:13.856Z,1001.36
2022-12-24T04:30:13.863Z,1001.37
2022-12-24T04:31:13.865Z,1001.39
2022-12-24T04:32:13.904Z,1001.41
2022-12-24T04:33:13.824Z,1001.40
2022-12-24T04:34:13.806Z,1001.38
2022-12-24T04:35:13.789Z,1001.45
2022-12-24T04:36:13.785Z,1001.48
2022-12-24T04:37:13.767Z,1001.52
2022-12-24T04:38:13.770Z,1001.49
2022-12-24T04:39:13.765Z,1001.53
2022-12-24T04:40:13.747Z,1001.57
2022-12-24T04:41:19.171Z,1001.62
2022-12-24T04:42:13.725Z,1001.63
2022-12-24T04:43:13.727Z,1001.64
2022-12-24T04:44:13.701Z,1001.64
2022-12-24T04:45:13.686Z,1001.64
2022-12-24T04:46:13.699Z,1001.67
2022-12-24T04:47:13.658Z,1001.62
2022-12-24T04:48:13.669Z,1001.72
2022-12-24T04:49:13.633Z,1001.70
2022-12-24T04:50:13.641Z,1001.63
2022-12-24T04:51:13.617Z,1001.67
2022-12-24T04:52:13.628Z,1001.69
2022-12-24T04:53:13.619Z,1001.69
2022-12-24T04:54:13.597Z,1001.65
2022-12-24T04:55:13.572Z,1001.70
2022-12-24T04:56:13.572Z,1001.73
2022-12-24T04:57:13.555Z,1001.71
2022-12-24T04:58:13.559Z,1001.76
2022-12-24T04:59:13.522Z,1001.82
2022-12-24T05:00:13.525Z,1001.82
2022-12-24T05:01:13.665Z,1001.88
2022-12-24T05:02:13.685Z,1001.85
2022-12-24T05:03:13.535Z,1001.84
2022-12-24T05:04:13.473Z,1001.85
2022-12-24T05:05:13.465Z,1001.87
2022-12-24T05:06:13.459Z,1001.82
2022-12-24T05:07:13.440Z,1001.84
2022-12-24T05:08:13.439Z,1001.86
2022-12-24T05:09:13.429Z,1001.85
2022-12-24T05:10:13.418Z,1001.93
2022-12-24T05:11:13.400Z,1001.92
2022-12-24T05:12:13.386Z,1001.91
2022-12-24T05:13:13.384Z,1001.92
2022-12-24T05:14:13.366Z,1001.94
2022-12-24T05:15:13.360Z,1001.92
2022-12-24T05:16:13.407Z,1001.91
2022-12-24T05:17:13.412Z,1001.97
2022-12-24T05:18:13.335Z,1001.98
2022-12-24T05:19:13.311Z,1001.97
2022-12-24T05:20:13.300Z,1001.99
2022-12-24T05:21:13.287Z,1002.02
2022-12-24T05:22:13.277Z,1001.96
2022-12-24T05:23:13.313Z,1001.93
2022-12-24T05:24:13.294Z,1001.92
2022-12-24T05:25:13.246Z,1001.92
2022-12-24T05:26:13.233Z,1001.85
2022-12-24T05:27:13.218Z,1001.88
2022-12-24T05:28:13.210Z,1001.90
2022-12-24T05:29:13.305Z,1001.96
2022-12-24T05:30:13.222Z,1001.94
2022-12-24T05:31:13.226Z,1001.97
2022-12-24T05:32:13.168Z,1002.02
2022-12-24T05:33:13.152Z,1002.04
2022-12-24T05:34:13.183Z,1002.05
2022-12-24T05:35:13.131Z,1002.05
2022-12-24T05:36:13.123Z,1002.08
2022-12-24T05:37:13.110Z,1002.04
2022-12-24T05:38:13.105Z,1002.12
2022-12-24T05:39:15.612Z,1002.09
2022-12-24T05:40:13.080Z,1002.09
2022-12-24T05:41:13.064Z,1002.11
2022-12-24T05:42:13.059Z,1002.15
2022-12-24T05:43:13.048Z,1002.16
2022-12-24T05:44:13.045Z,1002.19
2022-12-24T05:45:13.022Z,1002.18
2022-12-24T05:46:13.136Z,1002.19
2022-12-24T05:47:13.004Z,1002.15
2022-12-24T05:48:12.989Z,1002.12
2022-12-24T05:49:12.988Z,1002.14
2022-12-24T05:50:12.963Z,1002.13
2022-12-24T05:51:12.969Z,1002.15
2022-12-24T05:52:12.943Z,1002.15
2022-12-24T05:53:12.944Z,1002.18
2022-12-24T05:54:12.933Z,1002.17
2022-12-24T05:55:12.931Z,1002.18
2022-12-24T05:56:12.902Z,1002.20
2022-12-24T05:57:12.917Z,1002.18
2022-12-24T05:58:12.890Z,1002.20
2022-12-24T05:59:18.960Z,1002.20
2022-12-24T06:00:12.853Z,1002.23
2022-12-24T06:01:12.944Z,1002.22
2022-12-24T06:02:12.889Z,1002.24
2022-12-24T06:03:12.825Z,1002.24
2022-12-24T06:04:12.908Z,1002.18
2022-12-24T06:05:12.858Z,1002.18
2022-12-24T06:06:12.791Z,1002.13
2022-12-24T06:07:12.782Z,1002.13
2022-12-24T06:08:12.766Z,1002.15
2022-12-24T06:09:12.769Z,1002.15
2022-12-24T06:10:12.747Z,1002.14
2022-12-24T06:11:12.738Z,1002.14
2022-12-24T06:12:12.722Z,1002.21
2022-12-24T06:13:12.716Z,1002.17
2022-12-24T06:14:12.716Z,1002.23
2022-12-24T06:15:14.453Z,1002.25
2022-12-24T06:16:12.729Z,1002.22
2022-12-24T06:17:12.679Z,1002.24
2022-12-24T06:18:12.658Z,1002.23
2022-12-24T06:19:12.670Z,1002.22
2022-12-24T06:20:12.642Z,1002.26
2022-12-24T06:21:12.635Z,1002.29
2022-12-24T06:22:12.613Z,1002.28
2022-12-24T06:23:12.612Z,1002.29
2022-12-24T06:24:12.602Z,1002.31
2022-12-24T06:25:12.586Z,1002.22
2022-12-24T06:26:12.576Z,1002.28
2022-12-24T06:27:12.563Z,1002.29
2022-12-24T06:28:12.547Z,1002.24
2022-12-24T06:29:12.553Z,1002.28
2022-12-24T06:30:12.524Z,1002.30
2022-12-24T06:31:12.549Z,1002.21
2022-12-24T06:32:12.509Z,1002.25
2022-12-24T06:33:12.495Z,1002.28
2022-12-24T06:34:12.490Z,1002.29
2022-12-24T06:35:12.481Z,1002.25
2022-12-24T06:36:17.249Z,1002.26
2022-12-24T06:37:12.458Z,1002.22
2022-12-24T06:38:12.435Z,1002.30
2022-12-24T06:39:12.450Z,1002.23
2022-12-24T06:40:12.416Z,1002.30
2022-12-24T06:41:12.412Z,1002.28
2022-12-24T06:42:12.390Z,1002.23
2022-12-24T06:43:12.397Z,1002.25
2022-12-24T06:44:12.375Z,1002.25
2022-12-24T06:45:12.379Z,1002.26
2022-12-24T06:46:12.390Z,1002.23
2022-12-24T06:47:12.343Z,1002.23
2022-12-24T06:48:12.325Z,1002.28
2022-12-24T06:49:12.329Z,1002.33
2022-12-24T06:50:12.319Z,1002.35
2022-12-24T06:51:12.296Z,1002.33
2022-12-24T06:52:12.285Z,1002.37
2022-12-24T06:53:12.307Z,1002.38
2022-12-24T06:54:12.260Z,1002.38
2022-12-24T06:55:12.269Z,1002.40
2022-12-24T06:56:12.238Z,1002.38
2022-12-24T06:57:12.229Z,1002.50
2022-12-24T06:58:12.218Z,1002.51
2022-12-24T06:59:12.209Z,1002.53
2022-12-24T07:00:12.200Z,1002.52
2022-12-24T07:01:12.383Z,1002.58
2022-12-24T07:02:12.400Z,1002.61
2022-12-24T07:03:12.175Z,1002.58
2022-12-24T07:04:19.671Z,1002.58
2022-12-24T07:05:12.173Z,1002.62
2022-12-24T07:06:12.130Z,1002.65
2022-12-24T07:07:12.130Z,1002.70
2022-12-24T07:08:12.119Z,1002.73
2022-12-24T07:09:12.108Z,1002.82
2022-12-24T07:10:12.099Z,1002.71
2022-12-24T07:11:12.077Z,1002.74
2022-12-24T07:12:12.072Z,1002.78
2022-12-24T07:13:12.055Z,1002.74
2022-12-24T07:14:12.047Z,1002.74
2022-12-24T07:15:12.041Z,1002.73
2022-12-24T07:16:12.155Z,1002.75
2022-12-24T07:17:12.180Z,1002.73
2022-12-24T07:18:11.998Z,1002.76
2022-12-24T07:19:11.992Z,1002.81
2022-12-24T07:20:11.988Z,1002.83
2022-12-24T07:21:11.977Z,1002.85
2022-12-24T07:22:15.762Z,1002.87
2022-12-24T07:23:11.945Z,1002.84
2022-12-24T07:24:11.929Z,1002.88
2022-12-24T07:25:11.939Z,1002.83
2022-12-24T07:26:11.911Z,1002.84
2022-12-24T07:27:11.908Z,1002.91
2022-12-24T07:28:11.898Z,1002.87
2022-12-24T07:29:11.877Z,1002.90
2022-12-24T07:30:11.872Z,1002.90
2022-12-24T07:31:11.923Z,1002.97
2022-12-24T07:32:11.841Z,1002.94
2022-12-24T07:33:11.839Z,1002.94
2022-12-24T07:34:11.818Z,1002.96
2022-12-24T07:35:11.826Z,1002.99
2022-12-24T07:36:11.799Z,1003.00
2022-12-24T07:37:11.798Z,1003.02
2022-12-24T07:38:11.776Z,1003.03
2022-12-24T07:39:11.771Z,1003.02
2022-12-24T07:40:11.763Z,1003.03
2022-12-24T07:41:11.747Z,1003.05
2022-12-24T07:42:11.753Z,1003.07
2022-12-24T07:43:11.725Z,1003.06
2022-12-24T07:44:11.713Z,1003.04
2022-12-24T07:45:11.715Z,1003.04
2022-12-24T07:46:11.790Z,1003.01
2022-12-24T07:47:11.853Z,1003.03
2022-12-24T07:48:11.668Z,1003.02
2022-12-24T07:49:11.678Z,1003.04
2022-12-24T07:50:11.655Z,1003.03
2022-12-24T07:51:11.639Z,1003.03
2022-12-24T07:52:11.635Z,1003.04
2022-12-24T07:53:11.619Z,1003.02
2022-12-24T07:54:11.613Z,1003.00
2022-12-24T07:55:11.612Z,1003.01
2022-12-24T07:56:13.006Z,1002.98
2022-12-24T07:57:11.571Z,1003.01
2022-12-24T07:58:11.576Z,1003.00
2022-12-24T07:59:11.548Z,1003.03
2022-12-24T08:00:11.538Z,1003.08
2022-12-24T08:01:11.655Z,1003.10
2022-12-24T08:02:17.965Z,1003.07
2022-12-24T08:03:11.627Z,1003.06
2022-12-24T08:04:11.571Z,1003.09
2022-12-24T08:05:11.484Z,1003.12
2022-12-24T08:06:12.479Z,1003.12
2022-12-24T08:07:11.465Z,1003.19
2022-12-24T08:08:11.445Z,1003.28
2022-12-24T08:09:11.441Z,1003.31
2022-12-24T08:10:11.430Z,1003.30
2022-12-24T08:11:11.428Z,1003.36
2022-12-24T08:12:11.399Z,1003.37
2022-12-24T08:13:11.396Z,1003.37
2022-12-24T08:14:11.379Z,1003.41
2022-12-24T08:15:11.372Z,1003.36
2022-12-24T08:16:11.404Z,1003.37
2022-12-24T08:17:11.359Z,1003.37
2022-12-24T08:18:11.344Z,1003.34
2022-12-24T08:19:11.329Z,1003.41
2022-12-24T08:20:11.314Z,1003.44
2022-12-24T08:21:11.315Z,1003.47
2022-12-24T08:22:11.294Z,1003.56
2022-12-24T08:23:11.284Z,1003.56
2022-12-24T08:24:11.267Z,1003.54
2022-12-24T08:25:11.274Z,1003.61
2022-12-24T08:26:11.253Z,1003.58
2022-12-24T08:27:11.240Z,1003.63
2022-12-24T08:28:11.251Z,1003.58
2022-12-24T08:29:11.215Z,1003.56
2022-12-24T08:30:13.736Z,1003.64
2022-12-24T08:31:11.291Z,1003.61
2022-12-24T08:32:11.294Z,1003.60
2022-12-24T08:33:11.181Z,1003.63
2022-12-24T08:34:11.179Z,1003.67
2022-12-24T08:35:11.148Z,1003.66
2022-12-24T08:36:11.153Z,1003.70
2022-12-24T08:37:11.125Z,1003.65
2022-12-24T08:38:11.114Z,1003.74
2022-12-24T08:39:11.111Z,1003.75
2022-12-24T08:40:11.098Z,1003.76
2022-12-24T08:41:11.106Z,1003.75
2022-12-24T08:42:11.118Z,1003.79
2022-12-24T08:43:11.066Z,1003.85
2022-12-24T08:44:11.046Z,1003.86
2022-12-24T08:45:11.038Z,1003.88
2022-12-24T08:46:11.045Z,1003.93
2022-12-24T08:47:11.015Z,1003.94
2022-12-24T08:48:11.005Z,1003.89
2022-12-24T08:49:10.995Z,1003.95
2022-12-24T08:50:10.985Z,1003.90
2022-12-24T08:51:10.994Z,1003.89
2022-12-24T08:52:10.955Z,1003.91
2022-12-24T08:53:10.947Z,1003.90
2022-12-24T08:54:10.980Z,1003.88
2022-12-24T08:55:10.944Z,1003.90
2022-12-24T08:56:10.920Z,1003.90
2022-12-24T08:57:10.911Z,1003.89
2022-12-24T08:58:10.891Z,1003.88
2022-12-24T08:59:10.887Z,1003.89
2022-12-24T09:00:10.882Z,1003.89
2022-12-24T09:01:10.963Z,1003.81
2022-12-24T09:02:11.147Z,1003.87
2022-12-24T09:03:10.923Z,1003.89
2022-12-24T09:04:10.829Z,1003.93
2022-12-24T09:05:10.811Z,1004.07
2022-12-24T09:06:10.828Z,1004.09
2022-12-24T09:07:10.793Z,1004.09
2022-12-24T09:08:10.782Z,1004.20
2022-12-24T09:09:10.768Z,1004.15
2022-12-24T09:10:10.761Z,1004.22
2022-12-24T09:11:10.754Z,1004.22
2022-12-24T09:12:10.740Z,1004.26
2022-12-24T09:13:10.725Z,1004.23
2022-12-24T09:14:10.723Z,1004.23
2022-12-24T09:15:10.697Z,1004.29
2022-12-24T09:16:10.819Z,1004.27
2022-12-24T09:17:10.686Z,1004.29
2022-12-24T09:18:10.692Z,1004.23
2022-12-24T09:19:10.716Z,1004.34
2022-12-24T09:20:10.650Z,1004.32
2022-12-24T09:21:10.633Z,1004.38
2022-12-24T09:22:10.643Z,1004.48
2022-12-24T09:23:10.615Z,1004.46
2022-12-24T09:24:10.606Z,1004.45
2022-12-24T09:25:10.705Z,1004.52
2022-12-24T09:26:10.605Z,1004.56
2022-12-24T09:27:10.576Z,1004.59
2022-12-24T09:28:10.562Z,1004.54
2022-12-24T09:29:10.549Z,1004.61
2022-12-24T09:30:10.546Z,1004.67
2022-12-24T09:31:10.522Z,1004.63
2022-12-24T09:32:10.564Z,1004.69
2022-12-24T09:33:10.503Z,1004.69
2022-12-24T09:34:10.494Z,1004.73
2022-12-24T09:35:10.481Z,1004.72
2022-12-24T09:36:10.474Z,1004.73
2022-12-24T09:37:10.473Z,1004.67
2022-12-24T09:38:10.450Z,1004.56
2022-12-24T09:39:10.485Z,1004.72
2022-12-24T09:40:10.434Z,1004.67
2022-12-24T09:41:10.421Z,1004.72
2022-12-24T09:42:10.415Z,1004.78
2022-12-24T09:43:10.395Z,1004.78
2022-12-24T09:44:10.387Z,1004.72
2022-12-24T09:45:10.372Z,1004.77
2022-12-24T09:46:10.493Z,1004.84
2022-12-24T09:47:10.459Z,1004.88
2022-12-24T09:48:10.344Z,1004.95
2022-12-24T09:49:10.343Z,1004.97
2022-12-24T09:50:10.329Z,1005.00
2022-12-24T09:51:10.303Z,1005.05
2022-12-24T09:52:10.315Z,1004.99
2022-12-24T09:53:10.283Z,1005.01
2022-12-24T09:54:10.298Z,1005.01
2022-12-24T09:55:10.260Z,1005.01
2022-12-24T09:56:10.279Z,1004.99
2022-12-24T09:57:10.255Z,1005.02
2022-12-24T09:58:10.239Z,1004.99
2022-12-24T09:59:10.297Z,1005.03
2022-12-24T10:00:10.211Z,1005.07
2022-12-24T10:01:10.351Z,1005.03
2022-12-24T10:02:10.317Z,1005.01
2022-12-24T10:03:10.311Z,1005.01
2022-12-24T10:04:10.159Z,1005.06
2022-12-24T10:05:10.162Z,1005.01
2022-12-24T10:06:10.146Z,1005.01
2022-12-24T10:07:10.143Z,1005.08
2022-12-24T10:08:10.138Z,1005.08
2022-12-24T10:09:10.126Z,1005.08
2022-12-24T10:10:10.102Z,1005.12
2022-12-24T10:11:10.093Z,1005.10
2022-12-24T10:12:10.098Z,1005.13
2022-12-24T10:13:10.066Z,1005.17
2022-12-24T10:14:10.067Z,1005.17
2022-12-24T10:15:10.044Z,1005.19
2022-12-24T10:16:10.033Z,1005.20
2022-12-24T10:17:10.086Z,1005.25
2022-12-24T10:18:10.020Z,1005.26
2022-12-24T10:19:10.007Z,1005.22
2022-12-24T10:20:10.024Z,1005.26
2022-12-24T10:21:09.997Z,1005.31
2022-12-24T10:22:09.976Z,1005.22
2022-12-24T10:23:09.968Z,1005.25
2022-12-24T10:24:09.939Z,1005.26
2022-12-24T10:25:09.936Z,1005.29
2022-12-24T10:26:09.920Z,1005.35
2022-12-24T10:27:09.920Z,1005.28
2022-12-24T10:28:09.900Z,1005.30
2022-12-24T10:29:09.913Z,1005.29
2022-12-24T10:30:15.020Z,1005.34
2022-12-24T10:31:09.945Z,1005.30
2022-12-24T10:32:09.886Z,1005.40
2022-12-24T10:33:09.847Z,1005.33
2022-12-24T10:34:09.859Z,1005.37
2022-12-24T10:35:09.825Z,1005.36
2022-12-24T10:36:12.353Z,1005.35
2022-12-24T10:37:09.806Z,1005.34
2022-12-24T10:38:09.794Z,1005.30
2022-12-24T10:39:09.853Z,1005.29
2022-12-24T10:40:09.764Z,1005.34
2022-12-24T10:41:09.759Z,1005.36
2022-12-24T10:42:09.740Z,1005.33
2022-12-24T10:43:09.743Z,1005.38
2022-12-24T10:44:09.722Z,1005.35
2022-12-24T10:45:09.714Z,1005.41
2022-12-24T10:46:09.772Z,1005.31
2022-12-24T10:47:09.698Z,1005.29
2022-12-24T10:48:09.710Z,1005.35
2022-12-24T10:49:09.673Z,1005.37
2022-12-24T10:50:09.659Z,1005.33
2022-12-24T10:51:09.647Z,1005.33
2022-12-24T10:52:09.632Z,1005.35
2022-12-24T10:53:09.634Z,1005.39
2022-12-24T10:54:09.620Z,1005.35
2022-12-24T10:55:09.612Z,1005.29
2022-12-24T10:56:09.590Z,1005.39
2022-12-24T10:57:09.585Z,1005.41
2022-12-24T10:58:09.577Z,1005.39
2022-12-24T10:59:09.556Z,1005.39
2022-12-24T11:00:09.544Z,1005.41
2022-12-24T11:01:09.727Z,1005.41
2022-12-24T11:02:09.684Z,1005.49
2022-12-24T11:03:09.698Z,1005.51
2022-12-24T11:04:09.506Z,1005.46
2022-12-24T11:05:09.497Z,1005.31
2022-12-24T11:06:09.483Z,1005.46
2022-12-24T11:07:09.471Z,1005.45
2022-12-24T11:08:09.463Z,1005.46
2022-12-24T11:09:09.449Z,1005.50
2022-12-24T11:10:09.432Z,1005.46
2022-12-24T11:11:09.440Z,1005.34
2022-12-24T11:12:09.865Z,1005.46
2022-12-24T11:13:36.922Z,1005.43
2022-12-24T11:14:09.394Z,1005.43
2022-12-24T11:15:09.385Z,1005.41
2022-12-24T11:16:09.517Z,1005.40
2022-12-24T11:17:09.359Z,1005.40
2022-12-24T11:18:09.353Z,1005.35
2022-12-24T11:19:09.336Z,1005.37
2022-12-24T11:20:09.341Z,1005.35
2022-12-24T11:21:09.360Z,1005.35
2022-12-24T11:22:09.325Z,1005.30
2022-12-24T11:23:09.299Z,1005.29
2022-12-24T11:24:09.296Z,1005.35
2022-12-24T11:25:09.272Z,1005.30
2022-12-24T11:26:09.261Z,1005.32
2022-12-24T11:27:09.248Z,1005.31
2022-12-24T11:28:09.245Z,1005.29
2022-12-24T11:29:09.225Z,1005.36
2022-12-24T11:30:11.902Z,1005.30
2022-12-24T11:31:09.228Z,1005.35
2022-12-24T11:32:09.188Z,1005.32
2022-12-24T11:33:09.198Z,1005.27
2022-12-24T11:34:09.167Z,1005.27
2022-12-24T11:35:09.161Z,1005.25
2022-12-24T11:36:09.152Z,1005.37
2022-12-24T11:37:14.185Z,1005.31
2022-12-24T11:38:09.156Z,1005.35
2022-12-24T11:39:09.113Z,1005.35
2022-12-24T11:40:09.100Z,1005.29
2022-12-24T11:41:09.092Z,1005.30
2022-12-24T11:42:09.075Z,1005.31
2022-12-24T11:43:14.695Z,1005.32
2022-12-24T11:44:09.062Z,1005.24
2022-12-24T11:45:09.050Z,1005.32
2022-12-24T11:46:09.130Z,1005.38
2022-12-24T11:47:09.024Z,1005.38
2022-12-24T11:48:09.065Z,1005.35
2022-12-24T11:49:09.032Z,1005.34
2022-12-24T11:50:18.144Z,1005.37
2022-12-24T11:51:08.987Z,1005.39
2022-12-24T11:52:08.967Z,1005.32
2022-12-24T11:53:08.967Z,1005.32
2022-12-24T11:54:08.945Z,1005.46
2022-12-24T11:55:15.401Z,1005.45
2022-12-24T11:56:08.928Z,1005.43
2022-12-24T11:57:08.922Z,1005.48
2022-12-24T11:58:08.962Z,1005.44
2022-12-24T11:59:08.903Z,1005.43
2022-12-24T12:00:08.884Z,1005.39
2022-12-24T12:01:15.199Z,1005.49
2022-12-24T12:02:08.929Z,1005.47
2022-12-24T12:03:08.931Z,1005.49
2022-12-24T12:04:08.890Z,1005.44
2022-12-24T12:05:08.832Z,1005.35
2022-12-24T12:06:08.843Z,1005.32
2022-12-24T12:07:14.472Z,1005.39
2022-12-24T12:08:08.808Z,1005.39
2022-12-24T12:09:08.789Z,1005.35
2022-12-24T12:10:08.804Z,1005.34